Terminal Aerodrome Forecast
Issued by NWS

Home | Current Version | Previous Version | Text Only | Print | Product List | Glossary On
Versions: 1 2 3 4 5 6 7 8 9 10 11 12 13 14 15
000
FTUS43 KGRB 060520
TAFRHI
TAF
KRHI 060520Z 0606/0706 22007KT P6SM SCT100 SCT150
     FM060900 26006KT P6SM SCT200 WS020/29030KT
     FM061600 24010G16KT P6SM SCT100 SCT200
     FM062200 24008KT P6SM VCSH BKN100
     FM070200 35008KT P6SM VCSH BKN050=

USA.gov is the U.S. government's official web portal to all federal, state and local government web resources and services.